Independence, CA (93526)

3:54 PM PST on January 26, 2015 (GMT -0800)
Fort Independence | Change Station
CLOSE
Current Station
Personal Weather Station
Location: Independence, CA
Elevation: 3980 ft
Nearby Weather Stations

Elev 3980 ft 36.83 °N, 118.22 °W | Updated 2 seconds ago

Clear
Clear
62.0 °F
Feels Like 62.0 °F
N
11.5
Wind Variable Wind from SE
Gusts 11.5 mph

Today
High -- | Low -- °F
--% Chance of Precip.
Yesterday
High -- | Low -- °F
Precip. -- in
6:59 AM 5:11 PM
Waxing Crescent, 48% visible
Pressure 29.96 in
Visibility 10.0 miles
Clouds Clear
Dew Point 27 °F
Humidity 26%
Rainfall 0.00 in
Snow Depth Not available.
UV 2 out of 12
Pollen 4.40 out of 12
Air Quality Not available.
Flu Activity Not available.
METAR KBIH 262256Z AUTO 17013KT 10SM CLR 22/M07 A3003 RMK AO2 SLP143 T02221067

More Conditions Fewer Conditions

Pressure 29.96 in
Visibility 10.0 miles
Clouds Clear
Dew Point 27 °F
Humidity 26%
Rainfall 0.00 in
Snow Depth Not available.
UV 2 out of 12
Pollen 4.40 out of 12
Air Quality Not available.
Flu Activity Not available.
METAR KBIH 262256Z AUTO 17013KT 10SM CLR 22/M07 A3003 RMK AO2 SLP143 T02221067

More Conditions Fewer Conditions

10-Day Weather Forecast

Almanac

Astronomy

Jan. 26, 2015 Rise Set
Actual Time
Civil Twilight
Nautical Twilight
Astronomical Twilight
Moon
Length of Visible Light
Length of Day
Tomorrow will be .
, % of the Moon is Illuminated

Today's Extremes

State Highs State Lows

Community

WunderPhotos

Upload Photos

1,790,408 photos uploaded!

WunderBlogs® & News

Nearby

Air Quality

  Air Quality AQ Index Pollutant
Not available.

Snow Depth

Station Depth Elevation

Earthquake Activity

City Distance Mag. Time & Date
Minimum magnitude displayed is 2.5.

Coastal Water Temperatures

Place Temperature

Nearby Weather Stations